Аэропорт: Бесовец. Петрозаводск

ICAO: ULPB

METAR:
2018/11/21 18:00
ULPB 211800Z AUTO 25007G12MPS 9999 // ///089/// M01/M04 Q1017 RMK QFE759/1012
METAR:
Информация по данной станции не доступна